Time;durP1;ratioP1;P1;durP2;ratioP2;P2;SDS_P1;SDS_P2;PMS_P1;PMS_P2;Temp;Humidity;BMP_temperature;BMP_pressure;BME280_temperature;BME280_humidity;BME280_pressure;Samples;Min_cycle;Max_cycle;Signal;HPM_P1;HPM_P2
2022/12/26 00:02:14;;;;;;;27.75;14.75;;;;;;;9.75;62.77;100283.31;7821563;31;37023;-82
2022/12/26 00:06:30;;;;;;;27.90;15.48;;;;;;;9.95;61.99;100266.41;7820595;32;39201;-83
2022/12/26 00:10:47;;;;;;;29.08;15.25;;;;;;;9.83;62.04;100262.16;7820578;31;39928;-82
2022/12/26 00:15:03;;;;;;;26.67;15.60;;;;;;;9.88;61.74;100252.16;7820518;32;37978;-81
2022/12/26 00:19:20;;;;;;;33.22;15.65;;;;;;;9.63;62.46;100251.88;7820772;31;37821;-83
2022/12/26 00:23:37;;;;;;;27.95;16.10;;;;;;;9.57;62.58;100250.97;7820529;32;39201;-82
2022/12/26 00:27:53;;;;;;;26.52;15.68;;;;;;;9.25;63.30;100238.06;7820112;32;39880;-82
2022/12/26 00:32:09;;;;;;;31.73;15.95;;;;;;;9.40;63.19;100251.06;7830498;31;37937;-82
2022/12/26 00:36:29;;;;;;;35.83;17.45;;;;;;;9.23;63.65;100256.53;7847853;31;36802;-83
2022/12/26 00:40:45;;;;;;;28.10;16.27;;;;;;;9.11;64.09;100272.16;7847977;31;39312;-82
2022/12/26 00:45:02;;;;;;;33.20;16.65;;;;;;;9.20;63.74;100274.16;7847882;31;40805;-82
2022/12/26 00:49:18;;;;;;;34.30;17.37;;;;;;;9.24;63.47;100263.59;7849072;31;37618;-81
2022/12/26 00:53:35;;;;;;;30.67;17.05;;;;;;;9.09;63.77;100260.66;7824286;31;37909;-82
2022/12/26 00:57:51;;;;;;;30.02;15.57;;;;;;;8.80;65.03;100245.31;7820043;32;39436;-85
2022/12/26 01:02:36;;;;;;;31.52;16.77;;;;;;;8.91;64.92;100243.56;7819932;32;40772;-84
2022/12/26 01:06:44;;;;;;;31.15;17.08;;;;;;;8.96;64.52;100256.41;7820000;32;37944;-83
2022/12/26 01:11:11;;;;;;;33.35;18.17;;;;;;;8.72;65.13;100253.06;7820001;32;38210;-83
2022/12/26 01:15:27;;;;;;;30.17;17.30;;;;;;;8.91;64.54;100268.03;7819892;32;39311;-83
2022/12/26 01:19:44;;;;;;;37.70;18.98;;;;;;;8.82;64.66;100269.53;7819663;32;40799;-83
2022/12/26 01:24:00;;;;;;;36.30;19.55;;;;;;;8.76;64.85;100276.81;7819702;31;38738;-81
2022/12/26 01:28:16;;;;;;;37.72;19.58;;;;;;;8.63;65.23;100267.06;7819613;32;37159;-83
2022/12/26 01:32:33;;;;;;;37.08;18.77;;;;;;;8.44;65.84;100250.19;7829351;31;40007;-83
2022/12/26 01:36:50;;;;;;;32.33;18.42;;;;;;;8.52;65.79;100248.13;7846701;31;39879;-85
2022/12/26 01:41:15;;;;;;;32.85;19.05;;;;;;;8.59;65.63;100238.75;7844262;31;38835;-83
2022/12/26 01:45:32;;;;;;;33.45;17.95;;;;;;;8.64;65.46;100229.84;7845468;31;37795;-83
2022/12/26 01:49:51;;;;;;;33.08;18.37;;;;;;;8.48;66.23;100222.53;7846886;31;39175;-84
2022/12/26 01:54:09;;;;;;;34.80;18.23;;;;;;;8.59;65.70;100210.75;7835438;31;39985;-83
2022/12/26 01:59:11;;;;;;;33.72;17.73;;;;;;;8.52;65.76;100232.66;7846305;31;39378;-82
2022/12/26 02:08:13;;;;;;;30.42;17.30;;;;;;;8.45;65.74;100237.41;7818108;32;39367;-82
2022/12/26 02:12:32;;;;;;;32.97;17.90;;;;;;;8.41;65.90;100214.50;7829840;31;40817;-83
2022/12/26 02:16:54;;;;;;;36.25;17.92;;;;;;;8.26;66.23;100194.19;7845621;31;38967;-81
2022/12/26 02:21:54;;;;;;;32.15;18.33;;;;;;;8.31;66.01;100189.87;7843898;31;37935;-81
2022/12/26 02:26:29;;;;;;;33.95;18.65;;;;;;;8.17;66.02;100198.34;7745375;31;39076;-81
2022/12/26 02:30:49;;;;;;;33.97;18.20;;;;;;;8.22;66.01;100189.47;7828803;31;39959;-82
2022/12/26 02:35:30;;;;;;;37.20;19.60;;;;;;;8.18;65.69;100204.62;7845956;31;38730;-85
2022/12/26 02:39:55;;;;;;;36.10;18.25;;;;;;;8.01;66.11;100200.00;7842061;31;37857;-82
2022/12/26 02:49:28;;;;;;;33.55;18.08;;;;;;;7.59;67.19;100210.31;7817223;32;40141;-82
2022/12/26 03:13:44;;;;;;;34.97;19.05;;;;;;;7.58;67.24;100238.53;7847923;31;37974;-82
2022/12/26 03:18:05;;;;;;;41.58;19.42;;;;;;;7.66;66.93;100249.03;7847552;31;37158;-82
2022/12/26 03:22:30;;;;;;;40.17;19.58;;;;;;;7.77;66.62;100242.72;7834962;31;39534;-84
2022/12/26 03:26:52;;;;;;;37.00;19.05;;;;;;;7.59;66.86;100235.59;7848331;31;40000;-82
2022/12/26 03:31:14;;;;;;;42.83;20.48;;;;;;;7.75;66.45;100234.00;7831539;31;37914;-82
2022/12/26 03:35:32;;;;;;;40.53;19.27;;;;;;;7.81;66.21;100232.19;7819977;32;37103;-80
2022/12/26 04:46:11;;;;;;;38.17;18.62;;;;;;;7.58;67.57;100220.37;7846706;31;37852;-82
2022/12/26 04:50:27;;;;;;;35.13;18.77;;;;;;;7.55;67.46;100228.16;7832561;31;37876;-84
2022/12/26 04:54:43;;;;;;;41.35;19.15;;;;;;;7.75;66.77;100223.13;7847376;31;39289;-82
2022/12/26 04:59:00;;;;;;;33.28;18.42;;;;;;;7.78;66.51;100205.53;7832135;31;39924;-81
2022/12/26 05:12:26;;;;;;;43.42;19.35;;;;;;;7.59;67.44;100213.87;7847562;31;39182;-83
2022/12/26 05:30:27;;;;;;;40.17;19.75;;;;;;;7.69;67.37;100226.81;7843582;31;39214;-82
2022/12/26 05:34:43;;;;;;;36.55;18.95;;;;;;;7.90;66.49;100239.72;7846242;31;40121;-84
2022/12/26 05:39:00;;;;;;;34.15;19.70;;;;;;;7.71;67.07;100222.81;7819506;32;38812;-83
2022/12/26 05:43:18;;;;;;;37.35;19.08;;;;;;;7.67;67.08;100228.94;7824294;31;37209;-80
2022/12/26 05:47:34;;;;;;;38.30;20.40;;;;;;;7.74;66.92;100234.22;7846914;31;39827;-82
2022/12/26 05:51:51;;;;;;;38.80;19.42;;;;;;;7.72;66.70;100219.00;7846859;31;39808;-82
2022/12/26 05:56:13;;;;;;;39.20;19.27;;;;;;;7.62;67.42;100220.69;7823143;31;38108;-84
2022/12/26 06:00:30;;;;;;;37.47;17.77;;;;;;;7.68;67.22;100227.88;7819238;32;37907;-83
2022/12/26 06:04:46;;;;;;;43.20;18.55;;;;;;;7.59;67.31;100224.75;7835475;31;39775;-82
2022/12/26 06:09:02;;;;;;;39.63;20.00;;;;;;;7.51;67.62;100227.81;7846557;31;39672;-82
2022/12/26 06:13:19;;;;;;;38.40;18.40;;;;;;;7.46;68.03;100228.53;7825740;31;38779;-82
2022/12/26 06:17:35;;;;;;;38.13;19.30;;;;;;;7.64;67.62;100210.41;7817413;31;37135;-84
2022/12/26 06:21:52;;;;;;;36.30;18.65;;;;;;;7.53;67.63;100201.28;7828722;31;39291;-83
2022/12/26 06:26:09;;;;;;;42.95;19.23;;;;;;;7.55;67.74;100201.03;7838460;31;39890;-83
2022/12/26 06:30:25;;;;;;;35.55;19.27;;;;;;;7.72;67.44;100210.03;7819951;31;37955;-83
2022/12/26 06:34:41;;;;;;;39.80;19.10;;;;;;;7.56;67.66;100216.25;7846127;31;37834;-84
2022/12/26 06:39:00;;;;;;;39.97;19.67;;;;;;;7.61;67.61;100217.19;7826767;31;39291;-83
2022/12/26 06:43:16;;;;;;;35.10;17.65;;;;;;;7.72;67.14;100218.19;7818404;32;39956;-83
2022/12/26 06:47:32;;;;;;;33.55;17.90;;;;;;;7.76;67.09;100213.94;7838452;31;38550;-82
2022/12/26 06:51:49;;;;;;;36.17;18.08;;;;;;;7.83;66.15;100220.03;7845376;31;37157;-83
2022/12/26 06:56:13;;;;;;;37.88;19.02;;;;;;;7.86;66.41;100230.41;7834618;31;39742;-83
2022/12/26 07:00:30;;;;;;;39.35;17.92;;;;;;;7.86;66.39;100224.13;7817847;32;40766;-83
2022/12/26 07:04:46;;;;;;;37.70;19.40;;;;;;;7.83;66.67;100238.19;7819660;31;37826;-82
2022/12/26 07:09:08;;;;;;;37.42;19.42;;;;;;;7.97;66.09;100252.28;7845153;31;37720;-83
2022/12/26 07:13:25;;;;;;;36.40;19.25;;;;;;;7.94;66.27;100263.66;7845171;31;39268;-82
2022/12/26 07:17:41;;;;;;;41.47;19.00;;;;;;;7.97;66.38;100252.28;7823873;31;40735;-80
2022/12/26 07:21:57;;;;;;;45.08;20.12;;;;;;;8.13;66.28;100267.81;7817263;31;38787;-82
2022/12/26 07:26:14;;;;;;;41.72;18.58;;;;;;;8.32;67.46;100270.31;7835120;31;37200;-73
2022/12/26 07:30:30;;;;;;;39.53;19.00;;;;;;;8.43;67.91;100262.12;7844595;31;40012;-82
2022/12/26 07:34:46;;;;;;;38.53;19.58;;;;;;;8.50;67.95;100259.22;7844786;31;40556;-83
2022/12/26 07:39:03;;;;;;;44.10;19.98;;;;;;;8.63;65.31;100258.91;7845801;31;38546;-83
2022/12/26 07:43:19;;;;;;;40.17;19.02;;;;;;;8.76;64.70;100260.50;7848600;31;37921;-82
2022/12/26 07:47:35;;;;;;;40.67;18.95;;;;;;;8.57;65.01;100259.91;7848385;31;39203;-85
2022/12/26 07:51:52;;;;;;;38.28;19.15;;;;;;;8.74;64.07;100259.06;7844116;31;40043;-84
2022/12/26 07:56:08;;;;;;;40.38;20.27;;;;;;;8.79;63.98;100251.81;7820795;32;37906;-83
2022/12/26 08:00:24;;;;;;;36.30;20.35;;;;;;;8.76;63.98;100259.66;7818406;31;37725;-83
2022/12/26 08:04:40;;;;;;;40.05;20.30;;;;;;;8.77;64.40;100261.31;7830099;31;40248;-84
2022/12/26 08:08:57;;;;;;;40.50;20.12;;;;;;;8.72;65.37;100272.09;7847309;31;40741;-83
2022/12/26 08:13:13;;;;;;;45.25;20.45;;;;;;;8.95;64.24;100271.09;7845570;31;38003;-85
2022/12/26 08:17:31;;;;;;;47.30;21.40;;;;;;;8.95;64.30;100271.91;7845601;31;37008;-84
2022/12/26 08:21:50;;;;;;;42.95;20.48;;;;;;;9.00;63.90;100272.00;7843596;31;39279;-84
2022/12/26 08:26:09;;;;;;;38.55;19.40;;;;;;;9.06;63.96;100278.31;7844584;31;40609;-82
2022/12/26 08:30:25;;;;;;;46.37;20.85;;;;;;;8.93;64.38;100294.97;7841238;31;38738;-85
2022/12/26 08:34:42;;;;;;;47.50;22.70;;;;;;;9.07;63.87;100281.88;7847818;31;37229;-78
2022/12/26 08:38:58;;;;;;;42.38;19.42;;;;;;;8.92;64.94;100291.44;7848024;31;39261;-80
2022/12/26 08:43:14;;;;;;;39.13;19.65;;;;;;;9.23;64.13;100305.50;7847811;31;39644;-78
2022/12/26 08:47:53;;;;;;;41.90;20.60;;;;;;;9.23;64.56;100291.06;7844176;31;38155;-79
2022/12/26 08:52:09;;;;;;;44.33;20.92;;;;;;;9.35;64.12;100298.06;7819618;32;37901;-82
2022/12/26 08:56:27;;;;;;;47.92;21.40;;;;;;;9.40;62.76;100300.03;7820046;32;40328;-81
2022/12/26 09:00:43;;;;;;;44.45;19.87;;;;;;;9.14;63.33;100299.66;7820066;32;40040;-82
2022/12/26 09:05:04;;;;;;;46.05;21.25;;;;;;;9.39;62.53;100288.31;7819943;32;38822;-82
2022/12/26 09:11:36;;;;;;;42.95;19.92;;;;;;;9.42;63.93;100294.31;7890280;31;202741;-83
2022/12/26 09:15:52;;;;;;;48.35;21.30;;;;;;;9.42;63.93;100294.31;7844918;31;39985;-83
2022/12/26 09:20:09;;;;;;;46.42;20.83;;;;;;;9.23;63.54;100286.47;7845699;31;37647;-83
2022/12/26 09:24:25;;;;;;;43.97;20.33;;;;;;;8.81;65.61;100279.59;7867673;31;37163;-83
2022/12/26 09:28:44;;;;;;;43.00;20.15;;;;;;;9.36;64.17;100293.44;7867545;31;38995;-83
2022/12/26 09:33:02;;;;;;;48.70;21.55;;;;;;;9.45;63.15;100288.37;7867610;31;39628;-82
2022/12/26 09:37:19;;;;;;;48.65;21.55;;;;;;;9.06;64.17;100302.81;7867481;31;38014;-82
2022/12/26 09:41:41;;;;;;;45.53;21.52;;;;;;;9.49;62.80;100305.88;7867515;31;37826;-83
2022/12/26 09:46:11;;;;;;;47.55;21.48;;;;;;;8.70;65.06;100312.31;7867454;31;39791;-84
2022/12/26 09:50:34;;;;;;;48.15;20.85;;;;;;;8.85;65.26;100304.41;7865871;31;40045;-82
2022/12/26 09:55:01;;;;;;;51.80;21.05;;;;;;;9.10;64.85;100308.56;7866874;31;38715;-82
2022/12/26 09:59:20;;;;;;;44.20;21.62;;;;;;;8.98;65.25;100301.31;7866107;31;37214;-83
2022/12/26 10:03:42;;;;;;;49.97;22.45;;;;;;;9.74;63.40;100303.47;7867189;31;39822;-83
2022/12/26 10:08:09;;;;;;;45.42;20.37;;;;;;;9.76;63.22;100303.19;7860390;31;40054;-83
2022/12/26 10:12:59;;;;;;;47.15;19.95;;;;;;;9.57;63.81;100308.13;7847358;31;38020;-82
2022/12/26 10:17:41;;;;;;;51.20;20.75;;;;;;;9.76;63.25;100289.56;7866977;31;37905;-83
2022/12/26 10:22:06;;;;;;;43.63;20.02;;;;;;;10.17;62.66;100272.88;7839884;31;39041;-83
2022/12/26 10:26:28;;;;;;;36.85;18.33;;;;;;;10.44;62.83;100270.16;7835586;31;39980;-82
2022/12/26 10:30:45;;;;;;;41.25;17.48;;;;;;;10.93;61.80;100261.00;7847043;31;38097;-85
2022/12/26 10:35:15;;;;;;;34.22;17.25;;;;;;;11.59;60.54;100250.44;7839622;31;37792;-83
2022/12/26 10:39:46;;;;;;;34.30;17.55;;;;;;;12.02;58.62;100253.03;7847281;31;39193;-87
2022/12/26 10:44:03;;;;;;;31.92;15.27;;;;;;;12.12;57.58;100253.03;7847007;31;40806;-82
2022/12/26 10:48:20;;;;;;;25.27;14.23;;;;;;;12.62;56.84;100236.13;7847991;31;38815;-83
2022/12/26 10:52:39;;;;;;;31.10;15.45;;;;;;;12.62;56.06;100225.19;7841787;31;37384;-82
2022/12/26 10:56:57;;;;;;;28.12;14.27;;;;;;;12.82;55.61;100218.88;7826142;31;39949;-83
2022/12/26 11:01:35;;;;;;;32.78;15.70;;;;;;;13.00;54.95;100212.00;7844216;31;40782;-83
2022/12/26 11:05:54;;;;;;;31.55;16.10;;;;;;;13.71;51.82;100216.41;7820158;31;38902;-84
2022/12/26 11:10:27;;;;;;;;;;;;;;;12.31;54.91;100195.94;7819301;32;37064;-82
2022/12/26 11:14:44;;;;;;;33.65;15.88;;;;;;;12.43;54.91;100198.41;7820650;32;39611;-81
2022/12/26 11:19:00;;;;;;;41.05;18.12;;;;;;;13.16;53.81;100191.72;7818933;32;40514;-81
2022/12/26 11:23:46;;;;;;;34.15;17.10;;;;;;;13.21;53.64;100186.22;7820095;32;38611;-81
2022/12/26 11:28:17;;;;;;;34.13;17.10;;;;;;;14.38;51.29;100152.87;7819460;31;37858;-83
2022/12/26 11:32:33;;;;;;;37.30;17.35;;;;;;;14.33;51.03;100153.75;7818006;32;39264;-82
2022/12/26 11:36:50;;;;;;;33.85;15.35;;;;;;;14.63;50.83;100155.41;7819968;32;39974;-83
2022/12/26 11:41:31;;;;;;;31.50;15.65;;;;;;;14.75;50.72;100143.22;7819795;32;38101;-81
2022/12/26 11:45:50;;;;;;;31.92;16.08;;;;;;;14.35;50.81;100139.72;7818943;32;37335;-81
2022/12/26 11:50:17;;;;;;;35.42;15.77;;;;;;;14.58;51.00;100140.91;7819848;32;39644;-81
2022/12/26 11:54:37;;;;;;;35.65;17.23;;;;;;;14.55;50.48;100138.72;7845313;31;40522;-82
2022/12/26 11:59:12;;;;;;;34.42;16.23;;;;;;;14.54;50.54;100135.16;7845176;31;38845;-82
2022/12/26 12:03:44;;;;;;;34.50;16.30;;;;;;;14.27;50.53;100142.00;7846160;31;36797;-82
2022/12/26 12:08:18;;;;;;;30.90;14.70;;;;;;;14.17;50.42;100138.53;7845898;31;39134;-82
2022/12/26 12:13:00;;;;;;;35.75;19.92;;;;;;;14.07;51.16;100131.19;7847077;31;39978;-82
2022/12/26 12:17:42;;;;;;;33.90;16.40;;;;;;;14.19;50.81;100128.87;7845903;31;37703;-81
2022/12/26 12:22:33;;;;;;;34.80;16.42;;;;;;;13.88;51.31;100137.38;7846201;31;37757;-82
2022/12/26 12:27:05;;;;;;;35.67;16.85;;;;;;;14.51;50.13;100135.75;7847003;31;39775;-83
2022/12/26 12:31:50;;;;;;;37.67;16.42;;;;;;;14.25;51.34;100129.69;7845680;31;39939;-83
2022/12/26 12:36:17;;;;;;;37.10;17.87;;;;;;;14.79;49.77;100127.81;7832599;31;38564;-82
2022/12/26 12:40:39;;;;;;;38.17;18.77;;;;;;;14.78;49.52;100120.66;7847648;31;37044;-83
2022/12/26 12:45:14;;;;;;;38.33;17.25;;;;;;;14.90;48.65;100123.00;7846147;31;40016;-82
2022/12/26 12:49:42;;;;;;;36.35;16.77;;;;;;;14.53;49.95;100122.56;7818996;32;39609;-83
2022/12/26 12:54:08;;;;;;;35.60;17.65;;;;;;;14.26;50.52;100134.88;7843523;31;37826;-84
2022/12/26 12:58:29;;;;;;;34.30;16.02;;;;;;;14.32;50.29;100132.09;7845961;31;37966;-83
2022/12/26 13:03:15;;;;;;;34.17;16.37;;;;;;;14.17;50.07;100131.09;7841923;31;39896;-82
2022/12/26 13:07:38;;;;;;;35.20;15.32;;;;;;;13.52;51.33;100137.62;7819170;31;40784;-82
2022/12/26 13:12:05;;;;;;;35.00;16.15;;;;;;;13.93;50.86;100124.75;7818287;32;38814;-83
2022/12/26 13:16:42;;;;;;;31.27;16.15;;;;;;;14.08;50.34;100143.81;7817256;32;37921;-82
2022/12/26 13:21:07;;;;;;;30.98;15.60;;;;;;;13.52;51.93;100136.78;7824527;31;38894;-81
2022/12/26 13:25:26;;;;;;;33.60;16.35;;;;;;;13.44;51.36;100143.69;7831507;31;40749;-82
2022/12/26 13:29:46;;;;;;;35.83;17.10;;;;;;;13.40;51.54;100152.75;7837719;31;37323;-82
2022/12/26 13:34:06;;;;;;;39.15;18.50;;;;;;;13.34;51.44;100154.69;7844283;31;37869;-82
2022/12/26 13:38:24;;;;;;;36.97;18.20;;;;;;;12.55;53.86;100159.84;7844542;31;38833;-83
2022/12/26 13:47:49;;;;;;;37.40;18.33;;;;;;;12.55;53.63;100157.09;7845084;31;38815;-83
2022/12/26 13:52:14;;;;;;;40.65;18.37;;;;;;;12.44;53.86;100166.44;7842645;31;37981;-83
2022/12/26 13:56:30;;;;;;;37.40;17.87;;;;;;;12.16;54.79;100163.16;7847023;31;39640;-82
2022/12/26 14:00:47;;;;;;;39.45;19.08;;;;;;;11.84;55.63;100172.37;7848830;31;39589;-83
2022/12/26 14:05:31;;;;;;;47.28;19.42;;;;;;;11.74;56.25;100169.63;7849041;31;38656;-85
2022/12/26 14:10:02;;;;;;;39.60;17.90;;;;;;;11.44;57.04;100177.47;7848996;31;37169;-82
2022/12/26 14:14:55;;;;;;;46.42;19.15;;;;;;;11.16;58.20;100188.81;7848052;31;39152;-82
2022/12/26 14:19:30;;;;;;;40.85;20.85;;;;;;;11.12;58.09;100193.16;7848669;31;39929;-74
2022/12/26 14:24:17;;;;;;;41.13;19.55;;;;;;;10.59;60.11;100182.22;7848377;31;38086;-82
2022/12/26 14:28:42;;;;;;;45.75;21.05;;;;;;;10.95;59.03;100187.88;7847491;31;37236;-83
2022/12/26 14:33:25;;;;;;;40.58;19.23;;;;;;;11.16;58.16;100181.47;7848463;31;39210;-80
2022/12/26 14:38:21;;;;;;;45.55;19.50;;;;;;;10.86;59.33;100182.94;7847288;31;39909;-81
2022/12/26 14:43:09;;;;;;;42.33;20.67;;;;;;;10.71;59.78;100180.13;7813059;31;38879;-81
2022/12/26 14:47:37;;;;;;;44.38;20.10;;;;;;;10.86;58.97;100165.75;7822689;31;37907;-82
2022/12/26 14:51:53;;;;;;;41.75;19.60;;;;;;;10.38;60.78;100171.16;7848017;31;39113;-81
2022/12/26 14:56:35;;;;;;;46.10;19.62;;;;;;;10.22;61.25;100172.09;7847774;31;40917;-82
2022/12/26 15:00:52;;;;;;;49.35;21.05;;;;;;;10.38;60.68;100167.62;7848003;31;37924;-81
2022/12/26 15:05:21;;;;;;;48.17;20.88;;;;;;;10.38;60.66;100164.91;7846726;31;37261;-81
2022/12/26 15:10:14;;;;;;;43.42;19.75;;;;;;;9.97;62.26;100165.38;7848071;31;38815;-82
2022/12/26 15:14:58;;;;;;;41.90;18.93;;;;;;;10.22;61.21;100159.28;7847872;31;39590;-82
2022/12/26 15:19:42;;;;;;;45.88;20.12;;;;;;;10.06;61.77;100157.53;7847061;31;37670;-81
2022/12/26 15:24:21;;;;;;;47.60;21.95;;;;;;;10.08;62.13;100150.72;7847766;31;36869;-81
2022/12/26 15:29:32;;;;;;;49.33;21.50;;;;;;;9.96;62.47;100155.53;7825241;31;39379;-81
2022/12/26 15:34:10;;;;;;;47.10;21.95;;;;;;;9.98;62.60;100152.56;7847643;31;40814;-80
2022/12/26 15:38:40;;;;;;;46.83;21.17;;;;;;;9.73;63.58;100171.12;7847351;31;38876;-80
2022/12/26 15:43:08;;;;;;;48.30;22.55;;;;;;;9.93;62.93;100153.31;7847682;31;37775;-81
2022/12/26 15:47:46;;;;;;;51.85;22.40;;;;;;;9.84;63.25;100165.78;7847495;31;39197;-81
2022/12/26 15:52:07;;;;;;;49.22;21.52;;;;;;;9.89;63.28;100168.56;7847289;31;39974;-81
2022/12/26 15:56:47;;;;;;;46.60;21.15;;;;;;;9.77;63.58;100164.06;7847347;31;38945;-80
2022/12/26 16:01:04;;;;;;;49.70;21.40;;;;;;;9.91;62.98;100167.19;7847446;31;37824;-84
2022/12/26 16:05:29;;;;;;;47.38;20.98;;;;;;;9.81;63.64;100167.09;7847204;31;39144;-83
2022/12/26 16:09:51;;;;;;;48.75;20.75;;;;;;;9.52;64.59;100161.09;7846512;31;39875;-84
2022/12/26 16:14:24;;;;;;;52.03;21.25;;;;;;;9.64;64.34;100164.50;7845765;31;38809;-83
2022/12/26 16:18:40;;;;;;;44.58;21.17;;;;;;;9.66;64.51;100170.50;7845275;31;37658;-81
2022/12/26 16:22:56;;;;;;;50.35;21.35;;;;;;;9.75;63.86;100160.78;7846938;31;38837;-80
2022/12/26 16:27:22;;;;;;;48.40;21.12;;;;;;;9.61;64.55;100158.72;7833893;31;39975;-81
2022/12/26 16:31:39;;;;;;;53.25;22.25;;;;;;;9.61;64.66;100156.84;7845522;31;37646;-81
2022/12/26 16:35:55;;;;;;;45.65;21.70;;;;;;;9.73;64.15;100154.78;7834587;31;37972;-81
2022/12/26 16:40:20;;;;;;;54.70;23.55;;;;;;;9.69;64.10;100156.38;7817927;32;39311;-81
2022/12/26 16:44:39;;;;;;;55.03;23.33;;;;;;;9.59;64.61;100161.72;7839796;31;40507;-80
2022/12/26 16:49:00;;;;;;;53.58;23.35;;;;;;;9.65;64.38;100168.03;7845760;31;38687;-81
2022/12/26 16:53:19;;;;;;;53.95;24.37;;;;;;;9.60;64.78;100166.06;7836046;31;37193;-79
2022/12/26 16:57:35;;;;;;;51.10;22.60;;;;;;;9.54;64.96;100173.38;7846180;31;39459;-79
2022/12/26 17:01:56;;;;;;;50.30;21.85;;;;;;;9.73;64.17;100164.88;7845766;31;40011;-82
2022/12/26 17:06:51;;;;;;;51.75;22.02;;;;;;;9.75;64.26;100173.59;7834375;31;38760;-82
2022/12/26 17:11:08;;;;;;;56.08;23.80;;;;;;;9.94;63.45;100166.69;7760198;31;36576;-82
2022/12/26 17:15:35;;;;;;;54.95;22.98;;;;;;;9.48;64.89;100168.12;7817102;32;39224;-83
2022/12/26 17:19:53;;;;;;;51.15;24.08;;;;;;;9.28;65.67;100174.12;7818116;32;40205;-83
2022/12/26 17:24:23;;;;;;;55.20;23.83;;;;;;;9.42;64.94;100158.25;7842165;31;36904;-85
2022/12/26 17:28:39;;;;;;;57.55;23.52;;;;;;;9.16;65.67;100155.25;7835258;31;38016;-85
2022/12/26 17:33:22;;;;;;;53.20;24.98;;;;;;;9.42;64.69;100144.63;7848603;31;39401;-82
2022/12/26 17:37:38;;;;;;;59.35;23.27;;;;;;;8.95;66.26;100143.28;7846007;31;39785;-83
2022/12/26 17:42:00;;;;;;;47.67;23.77;;;;;;;9.05;66.00;100137.97;7848756;31;38802;-83
2022/12/26 17:46:17;;;;;;;53.03;23.62;;;;;;;9.25;65.41;100131.97;7835077;31;36819;-83
2022/12/26 17:50:42;;;;;;;62.58;25.70;;;;;;;8.96;66.42;100145.75;7809647;31;39145;-82
2022/12/26 17:54:58;;;;;;;55.85;22.75;;;;;;;8.99;66.17;100137.09;7791321;32;39992;-81
2022/12/26 17:59:14;;;;;;;44.85;21.30;;;;;;;9.15;65.72;100124.50;7793015;32;37589;-81
2022/12/26 18:03:31;;;;;;;58.55;23.65;;;;;;;9.31;65.29;100130.94;7793303;32;36923;-79
2022/12/26 18:07:49;;;;;;;59.40;24.27;;;;;;;9.28;65.07;100125.16;7793063;32;39932;-79
2022/12/26 18:12:05;;;;;;;58.80;22.13;;;;;;;9.10;66.13;100120.91;7789225;32;39883;-80
2022/12/26 18:16:26;;;;;;;99.80;24.25;;;;;;;9.14;65.90;100113.84;7765525;32;37730;-80
2022/12/26 18:20:43;;;;;;;64.35;22.73;;;;;;;9.03;66.45;100121.09;7765767;32;37259;-80
2022/12/26 18:24:59;;;;;;;92.30;22.77;;;;;;;9.24;64.89;100097.66;7765594;32;39328;-80
2022/12/26 18:29:15;;;;;;;247.02;26.77;;;;;;;9.20;65.12;100085.66;7772394;32;40709;-79
2022/12/26 18:33:31;;;;;;;59.65;23.90;;;;;;;9.07;65.54;100089.59;7792236;32;38689;-82
2022/12/26 18:37:50;;;;;;;87.05;25.00;;;;;;;8.97;66.16;100071.25;7792694;32;37961;-80
2022/12/26 18:42:10;;;;;;;78.12;23.65;;;;;;;8.77;66.83;100098.19;7792540;32;39150;-81
2022/12/26 18:46:28;;;;;;;83.00;24.95;;;;;;;8.96;66.07;100079.66;7765255;32;40139;-81
2022/12/26 18:50:45;;;;;;;80.90;24.27;;;;;;;8.92;66.36;100073.09;7757683;32;36945;-81
2022/12/26 18:55:01;;;;;;;114.90;25.98;;;;;;;8.82;66.38;100073.78;7765060;32;37269;-81
2022/12/26 18:59:17;;;;;;;60.08;24.10;;;;;;;8.77;66.72;100060.94;7764093;32;39400;-81
2022/12/26 19:03:33;;;;;;;71.78;25.88;;;;;;;8.44;67.85;100078.19;7765312;32;40026;-84
2022/12/26 19:07:49;;;;;;;66.62;25.30;;;;;;;8.70;67.03;100075.81;7765153;32;38772;-82
2022/12/26 19:12:06;;;;;;;73.68;25.73;;;;;;;8.54;67.59;100089.22;7765713;32;37295;-82
2022/12/26 19:16:22;;;;;;;89.55;25.92;;;;;;;8.57;67.30;100088.72;7765129;32;40196;-81
2022/12/26 19:20:38;;;;;;;55.08;23.77;;;;;;;8.88;66.53;100072.75;7765372;32;39948;-82
2022/12/26 19:24:59;;;;;;;82.37;23.02;;;;;;;8.88;66.71;100088.25;7764953;32;38868;-81
2022/12/26 19:29:15;;;;;;;158.37;26.33;;;;;;;8.56;67.69;100100.63;7765173;32;37522;-81
2022/12/26 19:33:31;;;;;;;169.82;27.00;;;;;;;8.39;68.44;100105.25;7765116;32;39954;-81
2022/12/26 19:37:47;;;;;;;131.93;29.50;;;;;;;8.60;67.75;100114.53;7764457;32;40769;-81
2022/12/26 19:42:03;;;;;;;194.80;26.67;;;;;;;8.70;67.43;100113.88;7765237;32;38674;-82
2022/12/26 19:46:20;;;;;;;287.27;29.40;;;;;;;8.64;67.39;100127.38;7773859;32;38050;-81
2022/12/26 19:50:36;;;;;;;609.50;37.88;;;;;;;8.38;68.32;100136.19;7791993;32;39406;-82
2022/12/26 19:54:52;;;;;;;162.10;26.10;;;;;;;7.90;69.71;100136.56;7789698;32;46891;-82
2022/12/26 19:59:09;;;;;;;300.05;28.10;;;;;;;8.51;67.54;100138.63;7792060;32;37972;-80
2022/12/26 20:03:25;;;;;;;134.73;24.33;;;;;;;8.19;68.72;100147.34;7791255;32;37233;-81
2022/12/26 20:07:41;;;;;;;278.67;28.08;;;;;;;8.46;68.00;100130.38;7792118;32;39167;-79
2022/12/26 20:11:57;;;;;;;204.90;26.45;;;;;;;8.33;68.15;100134.25;7769700;32;40769;-83
2022/12/26 20:16:22;;;;;;;98.95;22.80;;;;;;;8.46;67.38;100131.19;7766194;32;38794;-83
2022/12/26 20:20:58;;;;;;;83.30;23.58;;;;;;;8.51;67.23;100102.47;7765912;32;38441;-82
2022/12/26 20:25:16;;;;;;;196.68;28.12;;;;;;;8.52;67.30;100109.53;7764915;32;38171;-82
2022/12/26 20:29:33;;;;;;;103.25;24.63;;;;;;;8.48;67.46;100095.63;7765082;32;40301;-83
2022/12/26 20:33:50;;;;;;;94.82;24.20;;;;;;;8.25;67.96;100111.03;7765058;32;38154;-80
2022/12/26 20:38:08;;;;;;;76.07;23.60;;;;;;;8.54;67.36;100099.25;7775029;32;37626;-81
2022/12/26 20:42:24;;;;;;;119.05;24.15;;;;;;;8.58;67.36;100089.53;7791775;32;38905;-81
2022/12/26 20:46:41;;;;;;;154.27;25.90;;;;;;;8.58;67.35;100112.06;7791450;32;40500;-80
2022/12/26 20:50:58;;;;;;;105.70;25.08;;;;;;;8.33;67.89;100106.25;7791273;32;38712;-79
2022/12/26 20:55:17;;;;;;;278.62;28.90;;;;;;;8.69;66.83;100112.22;7791256;32;37282;-82
2022/12/26 20:59:36;;;;;;;168.48;24.25;;;;;;;8.33;68.38;100114.38;7791243;32;40037;-80
2022/12/26 21:03:53;;;;;;;315.80;29.30;;;;;;;8.38;67.84;100131.63;7791045;32;39960;-82
2022/12/26 21:08:09;;;;;;;116.95;21.35;;;;;;;8.42;67.61;100131.94;7774243;32;37898;-82
2022/12/26 21:12:26;;;;;;;292.95;26.58;;;;;;;8.58;67.12;100133.81;7763911;32;38030;-83
2022/12/26 21:16:44;;;;;;;213.23;25.33;;;;;;;8.24;68.40;100138.44;7763972;32;40006;-82
2022/12/26 21:21:12;;;;;;;151.98;23.83;;;;;;;8.26;68.22;100128.97;7763868;32;40020;-82
2022/12/26 21:25:28;;;;;;;236.50;26.52;;;;;;;8.70;66.90;100125.56;7781876;32;37910;-83
2022/12/26 21:29:44;;;;;;;293.85;26.10;;;;;;;8.46;67.73;100122.22;7790695;32;37936;-82
2022/12/26 21:34:02;;;;;;;136.02;22.85;;;;;;;8.45;67.72;100117.84;7790575;32;39112;-81
2022/12/26 21:38:21;;;;;;;177.90;24.85;;;;;;;8.50;67.35;100104.34;7790183;32;40077;-81
2022/12/26 21:42:38;;;;;;;204.23;23.98;;;;;;;8.64;67.13;100113.81;7789987;32;37699;-82
2022/12/26 21:46:55;;;;;;;200.50;24.63;;;;;;;8.45;67.45;100104.28;7789987;32;37342;-81
2022/12/26 21:51:15;;;;;;;93.37;22.23;;;;;;;8.40;67.80;100109.59;7789837;32;39983;-81
2022/12/26 21:55:35;;;;;;;95.53;22.20;;;;;;;8.41;68.02;100130.28;7789597;32;40782;-82
2022/12/26 21:59:57;;;;;;;121.62;23.10;;;;;;;8.47;67.53;100099.44;7788524;32;38712;-82
2022/12/26 22:04:22;;;;;;;120.72;22.23;;;;;;;8.37;67.90;100100.06;7788561;32;37720;-82
2022/12/26 22:08:39;;;;;;;112.20;22.40;;;;;;;8.38;67.61;100101.72;7785286;32;39744;-81